createdAt,value
2023-09-10T00:00:34.896Z,0
2023-09-10T00:01:59.045Z,0
2023-09-10T00:03:24.167Z,0
2023-09-10T00:04:50.237Z,0
2023-09-10T00:06:14.290Z,0
2023-09-10T00:07:39.467Z,0
2023-09-10T00:09:03.555Z,0
2023-09-10T00:10:28.775Z,0
2023-09-10T00:11:52.748Z,0
2023-09-10T00:13:16.871Z,0
2023-09-10T00:14:40.964Z,0
2023-09-10T00:16:06.249Z,0
2023-09-10T00:17:30.180Z,0
2023-09-10T00:18:55.345Z,0
2023-09-10T00:20:20.394Z,0
2023-09-10T00:21:40.663Z,0
2023-09-10T00:23:04.823Z,0
2023-09-10T00:24:30.848Z,0
2023-09-10T00:25:57.991Z,0
2023-09-10T00:27:07.396Z,0
2023-09-10T00:28:31.822Z,0
2023-09-10T00:29:55.838Z,0
2023-09-10T00:31:20.091Z,0
2023-09-10T00:32:44.175Z,0
2023-09-10T00:34:08.199Z,0
2023-09-10T00:35:33.409Z,0
2023-09-10T00:36:57.399Z,0
2023-09-10T00:38:21.499Z,0
2023-09-10T00:39:45.599Z,0
2023-09-10T00:40:58.205Z,0
2023-09-10T00:42:22.277Z,0
2023-09-10T00:43:28.067Z,0
2023-09-10T00:44:55.239Z,0
2023-09-10T00:46:05.565Z,0
2023-09-10T00:47:33.049Z,0
2023-09-10T00:48:58.129Z,0
2023-09-10T00:50:03.854Z,0
2023-09-10T00:51:31.082Z,0
2023-09-10T00:52:55.207Z,0
2023-09-10T00:54:21.302Z,0
2023-09-10T00:55:45.461Z,0
2023-09-10T00:57:10.560Z,0
2023-09-10T00:58:34.688Z,0
2023-09-10T00:59:59.783Z,0
2023-09-10T01:01:27.926Z,0
2023-09-10T01:02:52.102Z,0
2023-09-10T01:04:16.079Z,0
2023-09-10T01:05:40.209Z,0
2023-09-10T01:07:04.278Z,0
2023-09-10T01:08:28.390Z,0
2023-09-10T01:09:52.507Z,0
2023-09-10T01:11:16.622Z,0
2023-09-10T01:12:40.747Z,0
2023-09-10T01:14:04.928Z,0
2023-09-10T01:15:21.678Z,0
2023-09-10T01:16:46.404Z,0
2023-09-10T01:18:10.468Z,0
2023-09-10T01:19:34.592Z,0
2023-09-10T01:20:58.678Z,0
2023-09-10T01:22:22.739Z,0
2023-09-10T01:23:43.046Z,0
2023-09-10T01:25:09.115Z,0
2023-09-10T01:26:33.424Z,0
2023-09-10T01:27:58.401Z,0
2023-09-10T01:29:23.444Z,0
2023-09-10T01:30:48.642Z,0
2023-09-10T01:32:12.717Z,0
2023-09-10T01:33:18.492Z,0
2023-09-10T01:34:44.695Z,0
2023-09-10T01:36:08.777Z,0
2023-09-10T01:37:33.898Z,0
2023-09-10T01:38:58.972Z,0
2023-09-10T01:40:23.028Z,0
2023-09-10T01:41:48.261Z,0
2023-09-10T01:43:12.274Z,0
2023-09-10T01:44:37.421Z,0
2023-09-10T01:46:01.602Z,0
2023-09-10T01:47:26.757Z,0
2023-09-10T01:48:50.687Z,0
2023-09-10T01:50:15.859Z,0
2023-09-10T01:51:39.880Z,0
2023-09-10T01:53:05.045Z,0
2023-09-10T01:54:29.143Z,0
2023-09-10T01:55:53.311Z,0
2023-09-10T01:57:17.387Z,0
2023-09-10T01:58:42.740Z,0
2023-09-10T02:00:06.647Z,0
2023-09-10T02:01:31.704Z,0
2023-09-10T02:02:55.912Z,0
2023-09-10T02:04:20.964Z,0
2023-09-10T02:05:26.510Z,0
2023-09-10T02:06:52.962Z,0
2023-09-10T02:08:17.928Z,0
2023-09-10T02:09:42.039Z,0
2023-09-10T02:10:48.594Z,0
2023-09-10T02:12:12.975Z,0
2023-09-10T02:13:37.598Z,0
2023-09-10T02:15:02.322Z,0
2023-09-10T02:16:26.386Z,0
2023-09-10T02:17:50.507Z,0
2023-09-10T02:19:14.548Z,0
2023-09-10T02:20:38.760Z,0
2023-09-10T02:22:03.141Z,0
2023-09-10T02:23:27.843Z,0
2023-09-10T02:24:52.087Z,0
2023-09-10T02:26:16.163Z,0
2023-09-10T02:27:40.164Z,0
2023-09-10T02:29:04.415Z,0
2023-09-10T02:30:28.447Z,0
2023-09-10T02:31:52.562Z,0
2023-09-10T02:33:16.705Z,0
2023-09-10T02:34:40.740Z,0
2023-09-10T02:35:57.292Z,0
2023-09-10T02:37:21.163Z,0
2023-09-10T02:38:45.307Z,0
2023-09-10T02:40:09.427Z,0
2023-09-10T02:41:33.534Z,0
2023-09-10T02:42:57.635Z,0
2023-09-10T02:44:21.803Z,0
2023-09-10T02:45:45.854Z,0
2023-09-10T02:47:10.011Z,0
2023-09-10T02:48:34.096Z,0
2023-09-10T02:49:59.284Z,0
2023-09-10T02:51:04.791Z,0
2023-09-10T02:52:31.133Z,0
2023-09-10T02:53:36.717Z,0
2023-09-10T02:55:04.119Z,0
2023-09-10T02:56:31.198Z,0
2023-09-10T02:57:57.347Z,0
2023-09-10T02:59:21.445Z,0
2023-09-10T03:00:45.582Z,0
2023-09-10T03:02:11.784Z,0
2023-09-10T03:03:35.935Z,0
2023-09-10T03:04:52.157Z,0
2023-09-10T03:06:16.285Z,0
2023-09-10T03:07:40.432Z,0
2023-09-10T03:09:04.493Z,0
2023-09-10T03:10:28.556Z,0
2023-09-10T03:11:48.838Z,0
2023-09-10T03:13:13.943Z,0
2023-09-10T03:14:22.606Z,0
2023-09-10T03:15:46.747Z,0
2023-09-10T03:17:10.896Z,0
2023-09-10T03:18:33.117Z,0
2023-09-10T03:19:57.293Z,0
2023-09-10T03:21:17.440Z,0
2023-09-10T03:22:41.565Z,0
2023-09-10T03:24:05.679Z,0
2023-09-10T03:25:29.768Z,0
2023-09-10T03:26:54.157Z,0
2023-09-10T03:28:17.992Z,0
2023-09-10T03:29:42.063Z,0
2023-09-10T03:30:54.721Z,0
2023-09-10T03:31:55.717Z,0
2023-09-10T03:33:00.597Z,0
2023-09-10T03:34:01.522Z,0
2023-09-10T03:35:02.477Z,0
2023-09-10T03:36:11.331Z,0
2023-09-10T03:37:23.772Z,0
2023-09-10T03:38:40.429Z,0
2023-09-10T03:39:52.695Z,0
2023-09-10T03:40:53.698Z,0
2023-09-10T03:41:54.702Z,0
2023-09-10T03:42:55.704Z,0
2023-09-10T03:43:56.743Z,0
2023-09-10T03:44:57.784Z,0
2023-09-10T03:45:58.685Z,0
2023-09-10T03:46:59.825Z,0
2023-09-10T03:48:00.684Z,0
2023-09-10T03:49:01.700Z,0
2023-09-10T03:50:02.727Z,0
2023-09-10T03:51:03.674Z,0
2023-09-10T03:52:04.903Z,0
2023-09-10T03:53:05.725Z,0
2023-09-10T03:54:06.690Z,0
2023-09-10T03:55:07.784Z,0
2023-09-10T03:56:08.726Z,0
2023-09-10T03:57:09.683Z,0
2023-09-10T03:58:10.653Z,0
2023-09-10T03:59:11.747Z,0
2023-09-10T04:00:12.736Z,0
2023-09-10T04:01:13.738Z,0
2023-09-10T04:02:14.711Z,0
2023-09-10T04:03:15.816Z,0
2023-09-10T04:04:16.720Z,0
2023-09-10T04:05:17.759Z,0
2023-09-10T04:06:18.692Z,0
2023-09-10T04:07:19.685Z,0
2023-09-10T04:08:20.912Z,0
2023-09-10T04:09:21.687Z,0
2023-09-10T04:10:22.717Z,0
2023-09-10T04:11:23.697Z,0
2023-09-10T04:12:24.701Z,0
2023-09-10T04:13:25.691Z,0
2023-09-10T04:14:26.678Z,0
2023-09-10T04:15:27.713Z,0
2023-09-10T04:16:28.722Z,0
2023-09-10T04:17:29.872Z,0
2023-09-10T04:18:30.704Z,0
2023-09-10T04:19:31.768Z,0
2023-09-10T04:20:32.674Z,0
2023-09-10T04:21:33.713Z,0
2023-09-10T04:22:34.689Z,0
2023-09-10T04:23:35.677Z,0
2023-09-10T04:24:36.685Z,0
2023-09-10T04:25:37.800Z,0
2023-09-10T04:26:38.691Z,0
2023-09-10T04:27:39.702Z,0
2023-09-10T04:28:40.980Z,0
2023-09-10T04:29:41.708Z,0
2023-09-10T04:30:42.739Z,0
2023-09-10T04:31:43.800Z,0
2023-09-10T04:32:44.752Z,0
2023-09-10T04:33:45.686Z,0
2023-09-10T04:34:46.741Z,0
2023-09-10T04:35:47.699Z,0
2023-09-10T04:36:50.779Z,0
2023-09-10T04:37:49.753Z,0
2023-09-10T04:38:50.703Z,0
2023-09-10T04:39:51.680Z,0
2023-09-10T04:40:52.723Z,0
2023-09-10T04:41:53.736Z,0
2023-09-10T04:42:54.741Z,0
2023-09-10T04:43:55.740Z,0
2023-09-10T04:44:56.680Z,0
2023-09-10T04:45:57.760Z,0
2023-09-10T04:46:58.716Z,0
2023-09-10T04:47:59.734Z,0
2023-09-10T04:49:00.705Z,0
2023-09-10T04:50:01.764Z,0
2023-09-10T04:51:02.686Z,0
2023-09-10T04:52:03.742Z,0
2023-09-10T04:53:04.767Z,0
2023-09-10T04:54:05.695Z,0
2023-09-10T04:55:06.711Z,0
2023-09-10T04:56:07.761Z,0
2023-09-10T04:57:08.736Z,0
2023-09-10T04:58:09.717Z,0
2023-09-10T04:59:10.872Z,0
2023-09-10T05:00:11.693Z,0
2023-09-10T05:01:12.738Z,0
2023-09-10T05:02:13.761Z,0
2023-09-10T05:03:14.825Z,0
2023-09-10T05:04:15.763Z,0
2023-09-10T05:05:16.758Z,0
2023-09-10T05:06:17.699Z,0
2023-09-10T05:07:18.770Z,0
2023-09-10T05:08:19.717Z,0
2023-09-10T05:09:20.974Z,0
2023-09-10T05:10:21.719Z,0
2023-09-10T05:11:22.734Z,0
2023-09-10T05:12:23.706Z,0
2023-09-10T05:13:24.723Z,0
2023-09-10T05:14:25.796Z,0
2023-09-10T05:15:26.718Z,0
2023-09-10T05:16:27.795Z,0
2023-09-10T05:17:28.840Z,0
2023-09-10T05:18:29.727Z,0
2023-09-10T05:19:30.722Z,0
2023-09-10T05:20:31.731Z,0
2023-09-10T05:21:32.722Z,0
2023-09-10T05:22:33.739Z,0
2023-09-10T05:23:34.712Z,0
2023-09-10T05:24:35.758Z,0
2023-09-10T05:25:36.716Z,0
2023-09-10T05:26:37.715Z,0
2023-09-10T05:27:38.740Z,0
2023-09-10T05:28:39.956Z,0
2023-09-10T05:29:40.733Z,0
2023-09-10T05:30:41.735Z,0
2023-09-10T05:31:42.804Z,0
2023-09-10T05:32:43.873Z,0
2023-09-10T05:33:44.721Z,0
2023-09-10T05:34:45.742Z,0
2023-09-10T05:35:46.753Z,0
2023-09-10T05:36:47.717Z,0
2023-09-10T05:37:48.739Z,0
2023-09-10T05:38:49.721Z,0
2023-09-10T05:39:50.773Z,0
2023-09-10T05:40:51.769Z,0
2023-09-10T05:41:52.730Z,0
2023-09-10T05:42:53.760Z,0
2023-09-10T05:43:54.755Z,0
2023-09-10T05:44:55.773Z,0
2023-09-10T05:45:56.756Z,0
2023-09-10T05:46:57.822Z,0
2023-09-10T05:47:58.796Z,0
2023-09-10T05:48:59.759Z,0
2023-09-10T05:50:00.811Z,0
2023-09-10T05:51:01.758Z,0
2023-09-10T05:52:10.510Z,0
2023-09-10T05:53:26.901Z,0
2023-09-10T05:54:53.102Z,0
2023-09-10T05:56:13.378Z,0
2023-09-10T05:57:39.382Z,0.05
2023-09-10T05:59:05.496Z,0.06
2023-09-10T06:00:14.537Z,0
2023-09-10T06:01:40.339Z,0
2023-09-10T06:03:00.619Z,0.1
2023-09-10T06:04:17.115Z,0
2023-09-10T06:05:21.976Z,0.05
2023-09-10T06:06:30.562Z,0.21
2023-09-10T06:07:53.845Z,0.09
2023-09-10T06:09:06.338Z,0.15
2023-09-10T06:10:18.921Z,0.04
2023-09-10T06:11:46.018Z,0.08
2023-09-10T06:13:06.267Z,0.05
2023-09-10T06:14:16.034Z,0.11
2023-09-10T06:15:28.610Z,0.14
2023-09-10T06:16:37.283Z,0
2023-09-10T06:17:45.914Z,0
2023-09-10T06:18:54.650Z,0.14
2023-09-10T06:20:00.614Z,0.13
2023-09-10T06:21:04.296Z,0
2023-09-10T06:22:09.186Z,0
2023-09-10T06:23:21.835Z,0.18
2023-09-10T06:24:34.391Z,0.13
2023-09-10T06:25:39.134Z,0.13
2023-09-10T06:26:51.720Z,0.16
2023-09-10T06:28:08.232Z,0.14
2023-09-10T06:29:20.725Z,0.09
2023-09-10T06:30:33.235Z,0.07
2023-09-10T06:31:49.673Z,0.12
2023-09-10T06:33:10.174Z,0.13
2023-09-10T06:34:35.996Z,0.14
2023-09-10T06:35:52.359Z,0.24
2023-09-10T06:37:09.359Z,0.13
2023-09-10T06:38:30.626Z,0.16
2023-09-10T06:39:56.184Z,0.14
2023-09-10T06:41:20.292Z,0.36
2023-09-10T06:42:40.562Z,0.23
2023-09-10T06:44:04.784Z,0.19
2023-09-10T06:45:32.237Z,0.42
2023-09-10T06:46:57.913Z,0.22
2023-09-10T06:48:18.094Z,0.26
2023-09-10T06:49:43.526Z,0.21
2023-09-10T06:51:09.339Z,0.23
2023-09-10T06:52:35.499Z,0.29
2023-09-10T06:54:00.720Z,0.1
2023-09-10T06:55:26.748Z,0.13
2023-09-10T06:56:53.714Z,0.27
2023-09-10T06:58:18.853Z,0.11
2023-09-10T06:59:27.578Z,0.42
2023-09-10T07:00:53.729Z,0
2023-09-10T07:02:19.813Z,0
2023-09-10T07:03:29.246Z,0.04
2023-09-10T07:04:46.118Z,0.15
2023-09-10T07:06:11.070Z,0.2
2023-09-10T07:07:35.089Z,0.24
2023-09-10T07:08:59.246Z,0.15
2023-09-10T07:10:23.338Z,0.25
2023-09-10T07:11:47.549Z,0.36
2023-09-10T07:13:11.576Z,0.04
2023-09-10T07:14:35.640Z,0.21
2023-09-10T07:15:59.790Z,0.2
2023-09-10T07:17:23.930Z,0.32
2023-09-10T07:18:47.951Z,0.31
2023-09-10T07:20:12.126Z,0.06
2023-09-10T07:21:36.315Z,0.12
2023-09-10T07:23:00.280Z,0.25
2023-09-10T07:24:26.382Z,0.23
2023-09-10T07:25:50.560Z,0.07
2023-09-10T07:27:03.001Z,0.37
2023-09-10T07:28:23.341Z,0.27
2023-09-10T07:29:28.327Z,0.23
2023-09-10T07:30:52.244Z,0.04
2023-09-10T07:32:17.440Z,0.05
2023-09-10T07:33:41.490Z,0.21
2023-09-10T07:35:05.580Z,0.18
2023-09-10T07:36:29.681Z,0.25
2023-09-10T07:37:53.778Z,0.05
2023-09-10T07:39:17.902Z,0.11
2023-09-10T07:40:42.181Z,0.44
2023-09-10T07:41:54.803Z,0.19
2023-09-10T07:43:04.765Z,0.06
2023-09-10T07:44:28.586Z,0.18
2023-09-10T07:45:52.647Z,0.2
2023-09-10T07:47:18.792Z,0.15
2023-09-10T07:48:35.649Z,0.4
2023-09-10T07:49:52.645Z,0.38
2023-09-10T07:51:17.649Z,0.05
2023-09-10T07:52:41.714Z,0.25
2023-09-10T07:54:07.860Z,0.04
2023-09-10T07:55:32.958Z,0.22
2023-09-10T07:56:58.332Z,0.17
2023-09-10T07:58:22.325Z,0.43
2023-09-10T07:59:42.454Z,0.17
2023-09-10T08:00:43.445Z,0.34
2023-09-10T08:01:52.160Z,0.57
2023-09-10T08:03:12.511Z,0.12
2023-09-10T08:04:17.339Z,0.06
2023-09-10T08:05:42.389Z,0.14
2023-09-10T08:07:07.524Z,0
2023-09-10T08:08:24.055Z,0.16
2023-09-10T08:09:48.155Z,0.14
2023-09-10T08:11:12.166Z,0.09
2023-09-10T08:12:36.317Z,0
2023-09-10T08:14:00.524Z,0.15
2023-09-10T08:15:24.486Z,0.13
2023-09-10T08:16:48.809Z,0.07
2023-09-10T08:18:13.181Z,0.11
2023-09-10T08:19:36.810Z,0.17
2023-09-10T08:20:57.236Z,0.09
2023-09-10T08:22:21.541Z,0.25
2023-09-10T08:23:27.187Z,0.3
2023-09-10T08:24:32.436Z,0.15
2023-09-10T08:25:57.020Z,0.26
2023-09-10T08:27:09.638Z,1.52
2023-09-10T08:28:22.066Z,1.12
2023-09-10T08:29:35.065Z,1.38
2023-09-10T08:30:59.735Z,0.38
2023-09-10T08:32:23.940Z,0.25
2023-09-10T08:33:32.505Z,1.09
2023-09-10T08:34:33.506Z,0.94
2023-09-10T08:35:34.457Z,1.13
2023-09-10T08:36:39.379Z,0.91
2023-09-10T08:37:53.967Z,0.53
2023-09-10T08:38:58.769Z,0.82
2023-09-10T08:40:11.516Z,0.43
2023-09-10T08:41:16.148Z,0.64
2023-09-10T08:42:36.494Z,0.16
2023-09-10T08:43:45.135Z,0.57
2023-09-10T08:44:46.088Z,0.31
2023-09-10T08:46:09.389Z,0.5
2023-09-10T08:47:33.522Z,0
2023-09-10T08:48:49.912Z,0.45
2023-09-10T08:50:14.064Z,0.67
2023-09-10T08:51:26.507Z,0.58
2023-09-10T08:52:35.513Z,0.41
2023-09-10T08:53:47.819Z,0.25
2023-09-10T08:55:11.951Z,0.1
2023-09-10T08:56:35.133Z,0.49
2023-09-10T08:57:57.435Z,0.73
2023-09-10T08:59:10.109Z,0.98
2023-09-10T09:00:27.363Z,1.33
2023-09-10T09:01:56.532Z,1.03
2023-09-10T09:03:23.926Z,1.51
2023-09-10T09:04:47.862Z,0.23
2023-09-10T09:06:11.822Z,0.58
2023-09-10T09:07:33.080Z,0.63
2023-09-10T09:08:38.516Z,0.96
2023-09-10T09:09:42.774Z,1.35
2023-09-10T09:10:47.692Z,0.85
2023-09-10T09:12:04.046Z,0.47
2023-09-10T09:13:20.408Z,0.3
2023-09-10T09:14:36.941Z,0.41
2023-09-10T09:16:02.980Z,0.19
2023-09-10T09:17:19.393Z,0.65
2023-09-10T09:18:35.886Z,1.14
2023-09-10T09:19:52.137Z,0.66
2023-09-10T09:21:09.598Z,0.76
2023-09-10T09:22:22.130Z,0.7
2023-09-10T09:23:48.238Z,0.9
2023-09-10T09:25:04.693Z,0.97
2023-09-10T09:26:24.072Z,0.71
2023-09-10T09:27:28.839Z,1.23
2023-09-10T09:28:52.445Z,0.57
2023-09-10T09:30:16.262Z,0.15
2023-09-10T09:31:41.737Z,0.14
2023-09-10T09:32:54.249Z,0.61
2023-09-10T09:34:06.739Z,0.2
2023-09-10T09:35:30.875Z,0.09
2023-09-10T09:36:55.969Z,0.22
2023-09-10T09:38:16.276Z,1.34
2023-09-10T09:39:32.885Z,0.74
2023-09-10T09:40:59.974Z,0.55
2023-09-10T09:42:03.558Z,1.63
2023-09-10T09:43:17.115Z,1.34
2023-09-10T09:44:29.593Z,0.84
2023-09-10T09:45:43.541Z,1.26
2023-09-10T09:46:53.317Z,1.14
2023-09-10T09:47:54.212Z,1.39
2023-09-10T09:48:55.268Z,1.05
2023-09-10T09:50:00.191Z,0.83
2023-09-10T09:51:20.494Z,0.3
2023-09-10T09:52:21.509Z,0.67
2023-09-10T09:53:22.506Z,1.38
2023-09-10T09:54:23.438Z,0.69
2023-09-10T09:55:29.310Z,0.45
2023-09-10T09:56:41.931Z,0.27
2023-09-10T09:57:56.463Z,0.12
2023-09-10T09:59:01.359Z,0.09
2023-09-10T10:00:10.154Z,0.32
2023-09-10T10:01:18.869Z,0.66
2023-09-10T10:02:27.635Z,0.21
2023-09-10T10:03:43.947Z,0.57
2023-09-10T10:04:48.726Z,0.43
2023-09-10T10:05:49.628Z,0.72
2023-09-10T10:06:50.633Z,1.35
2023-09-10T10:07:52.885Z,1.1
2023-09-10T10:09:00.352Z,0.95
2023-09-10T10:10:01.449Z,1.57
2023-09-10T10:11:02.393Z,1.74
2023-09-10T10:12:11.051Z,2.11
2023-09-10T10:13:12.065Z,1.6
2023-09-10T10:14:13.139Z,1.41
2023-09-10T10:15:14.071Z,1.85
2023-09-10T10:16:15.116Z,2.04
2023-09-10T10:17:16.186Z,1.33
2023-09-10T10:18:20.984Z,0.53
2023-09-10T10:19:21.917Z,1.02
2023-09-10T10:20:23.062Z,0.53
2023-09-10T10:21:23.904Z,1.36
2023-09-10T10:22:24.970Z,1.04
2023-09-10T10:23:53.093Z,0.07
2023-09-10T10:25:13.352Z,0
2023-09-10T10:26:32.014Z,0.53
2023-09-10T10:27:48.158Z,0.66
2023-09-10T10:28:56.756Z,1.45
2023-09-10T10:29:57.778Z,1.02
2023-09-10T10:31:06.525Z,0.79
2023-09-10T10:32:19.161Z,0.41
2023-09-10T10:33:31.644Z,0.06
2023-09-10T10:34:32.601Z,0.74
2023-09-10T10:35:33.592Z,0.74
2023-09-10T10:36:42.480Z,0.41
2023-09-10T10:38:02.599Z,0.07
2023-09-10T10:39:13.353Z,1.07
2023-09-10T10:40:14.353Z,1.11
2023-09-10T10:41:23.061Z,0.75
2023-09-10T10:42:31.790Z,0.62
2023-09-10T10:43:40.661Z,0.65
2023-09-10T10:44:45.234Z,1.18
2023-09-10T10:45:46.228Z,1.48
2023-09-10T10:46:47.195Z,1.22
2023-09-10T10:47:52.180Z,0.67
2023-09-10T10:49:04.828Z,0.59
2023-09-10T10:50:17.567Z,0.17
2023-09-10T10:51:49.902Z,0.28
2023-09-10T10:52:57.141Z,0.22
2023-09-10T10:54:05.823Z,0.15
2023-09-10T10:55:14.416Z,0.15
2023-09-10T10:56:34.773Z,0
2023-09-10T10:57:47.894Z,0.26
2023-09-10T10:59:04.759Z,0.26
2023-09-10T11:00:13.560Z,0.75
2023-09-10T11:01:33.640Z,0.69
2023-09-10T11:02:50.059Z,0.47
2023-09-10T11:04:10.345Z,0.31
2023-09-10T11:05:15.234Z,0.1
2023-09-10T11:06:19.973Z,0.3
2023-09-10T11:07:33.542Z,0.77
2023-09-10T11:08:38.403Z,1.4
2023-09-10T11:09:54.961Z,0.54
2023-09-10T11:11:12.269Z,0.46
2023-09-10T11:12:32.504Z,0.27
2023-09-10T11:13:40.304Z,0.53
2023-09-10T11:15:04.494Z,0.2
2023-09-10T11:16:28.976Z,0.26
2023-09-10T11:17:42.225Z,0.11
2023-09-10T11:18:54.682Z,0.98
2023-09-10T11:20:20.922Z,0.48
2023-09-10T11:21:36.184Z,0.11
2023-09-10T11:22:56.459Z,0.2
2023-09-10T11:24:08.971Z,0.29
2023-09-10T11:25:17.628Z,1.18
2023-09-10T11:26:22.592Z,1.48
2023-09-10T11:27:36.178Z,0.69
2023-09-10T11:29:00.408Z,0.21
2023-09-10T11:30:24.312Z,0
2023-09-10T11:31:40.872Z,0.16
2023-09-10T11:32:57.262Z,0.84
2023-09-10T11:34:20.394Z,0.55
2023-09-10T11:35:40.703Z,0.6
2023-09-10T11:37:04.937Z,0.45
2023-09-10T11:38:21.355Z,0.29
2023-09-10T11:39:46.323Z,0.18
2023-09-10T11:40:51.628Z,0.61
2023-09-10T11:42:12.451Z,0.66
2023-09-10T11:43:28.736Z,1.06
2023-09-10T11:44:33.817Z,0.71
2023-09-10T11:45:38.475Z,1.37
2023-09-10T11:46:47.052Z,1.7
2023-09-10T11:48:01.893Z,1.43
2023-09-10T11:49:06.769Z,0.73
2023-09-10T11:50:15.378Z,0.62
2023-09-10T11:51:20.239Z,1.02
2023-09-10T11:53:43.528Z,0.82
2023-09-10T11:54:59.955Z,0.31
2023-09-10T11:56:16.447Z,0.46
2023-09-10T11:57:29.019Z,0.39
2023-09-10T11:58:33.764Z,1.2
2023-09-10T11:59:58.886Z,0.37
2023-09-10T12:01:11.434Z,0.68
2023-09-10T12:02:20.323Z,1.14
2023-09-10T12:03:36.659Z,0.53
2023-09-10T12:04:52.944Z,0.26
2023-09-10T12:06:17.064Z,0.08
2023-09-10T12:07:33.430Z,0.33
2023-09-10T12:08:53.687Z,0.21
2023-09-10T12:10:14.333Z,0.3
2023-09-10T12:11:26.889Z,0.93
2023-09-10T12:12:35.316Z,1.27
2023-09-10T12:13:36.753Z,1.2
2023-09-10T12:14:42.252Z,1.02
2023-09-10T12:15:59.731Z,0.53
2023-09-10T12:17:23.785Z,0.79
2023-09-10T12:18:48.870Z,0
2023-09-10T12:20:14.017Z,0.57
2023-09-10T12:21:22.620Z,1.97
2023-09-10T12:22:27.501Z,1.29
2023-09-10T12:23:40.359Z,1.41
2023-09-10T12:24:48.784Z,0.34
2023-09-10T12:25:53.594Z,0.47
2023-09-10T12:27:02.295Z,0.93
2023-09-10T12:28:22.591Z,0.4
2023-09-10T12:29:42.928Z,0.41
2023-09-10T12:30:51.980Z,1.34
2023-09-10T12:32:04.444Z,0.67
2023-09-10T12:33:20.615Z,0.84
2023-09-10T12:34:31.358Z,0.81
2023-09-10T12:35:59.491Z,0.53
2023-09-10T12:37:14.042Z,1
2023-09-10T12:38:26.659Z,0.73
2023-09-10T12:39:42.943Z,0.33
2023-09-10T12:41:05.316Z,0.53
2023-09-10T12:42:21.658Z,0.11
2023-09-10T12:43:34.471Z,0.3
2023-09-10T12:44:40.604Z,0.52
2023-09-10T12:46:00.442Z,0.95
2023-09-10T12:47:18.242Z,0.81
2023-09-10T12:48:44.413Z,0.75
2023-09-10T12:50:09.199Z,0.99
2023-09-10T12:51:31.385Z,1.02
2023-09-10T12:52:55.769Z,0.65
2023-09-10T12:54:19.606Z,1.35
2023-09-10T12:55:39.970Z,1.06
2023-09-10T12:56:52.355Z,1.17
2023-09-10T12:58:14.571Z,0.06
2023-09-10T12:59:35.852Z,0.22
2023-09-10T13:00:56.122Z,0.08
2023-09-10T13:02:05.058Z,0.35
2023-09-10T13:03:05.954Z,1.53
2023-09-10T13:04:14.528Z,0.73
2023-09-10T13:05:19.398Z,0.48
2023-09-10T13:06:41.621Z,0.17
2023-09-10T13:07:50.294Z,0.64
2023-09-10T13:08:55.168Z,0.65
2023-09-10T13:09:56.156Z,0.73
2023-09-10T13:11:10.813Z,1.16
2023-09-10T13:12:19.377Z,0.95
2023-09-10T13:13:24.220Z,1.36
2023-09-10T13:14:38.861Z,0.51
2023-09-10T13:15:47.505Z,0.11
2023-09-10T13:17:11.596Z,0.21
2023-09-10T13:18:18.668Z,0
2023-09-10T13:19:42.606Z,0.65
2023-09-10T13:21:06.774Z,0.92
2023-09-10T13:22:27.270Z,0.36
2023-09-10T13:23:48.331Z,0.77
2023-09-10T13:25:02.776Z,1.03
2023-09-10T13:26:29.008Z,0.83
2023-09-10T13:27:45.259Z,0.92
2023-09-10T13:28:55.558Z,1.42
2023-09-10T13:30:18.328Z,0.8
2023-09-10T13:31:41.659Z,0.39
2023-09-10T13:32:46.484Z,1.24
2023-09-10T13:34:03.048Z,0.4
2023-09-10T13:35:19.213Z,0.22
2023-09-10T13:36:27.985Z,0.82
2023-09-10T13:37:52.316Z,0.59
2023-09-10T13:39:16.117Z,0.52
2023-09-10T13:40:34.805Z,0.46
2023-09-10T13:41:55.789Z,0.3
2023-09-10T13:43:00.637Z,0.05
2023-09-10T13:44:13.316Z,0.26
2023-09-10T13:45:35.492Z,0.34
2023-09-10T13:46:59.612Z,0.07
2023-09-10T13:48:23.785Z,0.79
2023-09-10T13:49:48.883Z,0.22
2023-09-10T13:51:14.005Z,0.06
2023-09-10T13:52:38.982Z,0.15
2023-09-10T13:54:04.093Z,0.26
2023-09-10T13:55:20.504Z,0.11
2023-09-10T13:56:25.972Z,0
2023-09-10T13:57:50.575Z,0.27
2023-09-10T13:59:03.336Z,0
2023-09-10T14:00:23.878Z,0.11
2023-09-10T14:01:40.823Z,0
2023-09-10T14:03:04.901Z,0.24
2023-09-10T14:04:25.445Z,0.26
2023-09-10T14:05:38.016Z,0.34
2023-09-10T14:07:03.765Z,0.4
2023-09-10T14:08:30.901Z,0.19
2023-09-10T14:09:51.168Z,0.17
2023-09-10T14:11:18.308Z,0.46
2023-09-10T14:12:43.709Z,0.43
2023-09-10T14:14:09.548Z,0.33
2023-09-10T14:15:33.546Z,0.6
2023-09-10T14:16:58.687Z,0.33
2023-09-10T14:18:23.822Z,0.14
2023-09-10T14:19:32.855Z,0.58
2023-09-10T14:20:44.053Z,0.21
2023-09-10T14:22:09.331Z,0.31
2023-09-10T14:23:34.468Z,0.2
2023-09-10T14:24:42.665Z,0.37
2023-09-10T14:26:08.480Z,0.5
2023-09-10T14:27:17.100Z,0.37
2023-09-10T14:28:44.281Z,0.34
2023-09-10T14:29:49.308Z,0.25
2023-09-10T14:31:16.126Z,0.23
2023-09-10T14:32:41.308Z,0.43
2023-09-10T14:34:07.398Z,0.21
2023-09-10T14:35:12.747Z,0.42
2023-09-10T14:36:37.346Z,0.17
2023-09-10T14:38:02.682Z,0.27
2023-09-10T14:39:18.846Z,0.2
2023-09-10T14:40:44.879Z,0
2023-09-10T14:42:09.973Z,0.13
2023-09-10T14:43:18.787Z,0.04
2023-09-10T14:44:42.970Z,0
2023-09-10T14:46:08.053Z,0.4
2023-09-10T14:47:25.380Z,0.66
2023-09-10T14:48:49.477Z,0.31
2023-09-10T14:50:05.845Z,0.13
2023-09-10T14:51:26.314Z,0
2023-09-10T14:52:50.251Z,0
2023-09-10T14:54:10.475Z,0
2023-09-10T14:55:37.575Z,0.16
2023-09-10T14:57:01.702Z,0.16
2023-09-10T14:58:25.810Z,0
2023-09-10T14:59:51.935Z,0
2023-09-10T15:00:56.705Z,0
2023-09-10T15:02:26.338Z,0
2023-09-10T15:03:34.883Z,0.82
2023-09-10T15:04:58.762Z,0.64
2023-09-10T15:06:11.286Z,0.34
2023-09-10T15:07:35.332Z,0.61
2023-09-10T15:08:59.477Z,0.35
2023-09-10T15:10:24.809Z,0.22
2023-09-10T15:11:49.804Z,0.17
2023-09-10T15:13:16.807Z,0.07
2023-09-10T15:14:29.992Z,0.34
2023-09-10T15:15:47.482Z,0.33
2023-09-10T15:17:11.897Z,0.4
2023-09-10T15:18:38.974Z,0
2023-09-10T15:19:53.165Z,0.12
2023-09-10T15:21:06.089Z,0.09
2023-09-10T15:22:18.670Z,0
2023-09-10T15:23:44.847Z,0
2023-09-10T15:25:05.159Z,0.12
2023-09-10T15:26:17.739Z,0.14
2023-09-10T15:27:30.348Z,0.15
2023-09-10T15:28:51.019Z,0.3
2023-09-10T15:30:07.949Z,0.36
2023-09-10T15:31:27.717Z,0.21
2023-09-10T15:32:52.507Z,0.33
2023-09-10T15:34:16.724Z,0.27
2023-09-10T15:35:40.626Z,0.16
2023-09-10T15:37:04.748Z,0
2023-09-10T15:38:28.825Z,0
2023-09-10T15:39:53.993Z,0.19
2023-09-10T15:41:18.501Z,0
2023-09-10T15:42:44.181Z,0.15
2023-09-10T15:44:08.375Z,0.26
2023-09-10T15:45:32.489Z,0.15
2023-09-10T15:46:57.519Z,0.21
2023-09-10T15:48:21.671Z,0.5
2023-09-10T15:49:34.176Z,0
2023-09-10T15:50:59.283Z,0
2023-09-10T15:52:21.609Z,0.2
2023-09-10T15:53:45.706Z,0
2023-09-10T15:55:09.829Z,0
2023-09-10T15:56:35.923Z,0
2023-09-10T15:57:48.424Z,0
2023-09-10T15:59:01.020Z,0
2023-09-10T16:00:17.375Z,0
2023-09-10T16:01:31.107Z,0
2023-09-10T16:02:51.300Z,0
2023-09-10T16:04:15.403Z,0
2023-09-10T16:05:39.595Z,0
2023-09-10T16:06:55.857Z,0
2023-09-10T16:08:22.076Z,0
2023-09-10T16:09:46.103Z,0
2023-09-10T16:11:11.285Z,0
2023-09-10T16:12:23.687Z,0
2023-09-10T16:13:32.413Z,0
2023-09-10T16:14:48.774Z,0
2023-09-10T16:16:09.156Z,0
2023-09-10T16:17:26.523Z,0
2023-09-10T16:18:47.719Z,0
2023-09-10T16:20:11.011Z,0
2023-09-10T16:21:31.433Z,0
2023-09-10T16:22:53.918Z,0
2023-09-10T16:24:20.678Z,0
2023-09-10T16:25:37.405Z,0
2023-09-10T16:27:02.133Z,0
2023-09-10T16:28:26.292Z,0
2023-09-10T16:29:50.405Z,0
2023-09-10T16:31:15.589Z,0
2023-09-10T16:32:28.514Z,0
2023-09-10T16:33:49.251Z,0
2023-09-10T16:35:13.448Z,0
2023-09-10T16:36:37.474Z,0
2023-09-10T16:37:42.774Z,0
2023-09-10T16:39:07.474Z,0
2023-09-10T16:40:31.531Z,0
2023-09-10T16:41:47.949Z,0
2023-09-10T16:43:15.045Z,0
2023-09-10T16:44:20.333Z,0
2023-09-10T16:45:45.027Z,0
2023-09-10T16:47:10.308Z,0
2023-09-10T16:48:35.290Z,0
2023-09-10T16:50:02.398Z,0
2023-09-10T16:51:28.455Z,0
2023-09-10T16:52:49.733Z,0
2023-09-10T16:53:58.833Z,0
2023-09-10T16:55:23.519Z,0
2023-09-10T16:56:47.589Z,0
2023-09-10T16:58:11.756Z,0
2023-09-10T16:59:35.876Z,0
2023-09-10T17:01:00.024Z,0
2023-09-10T17:02:24.108Z,0
2023-09-10T17:03:33.345Z,0
2023-09-10T17:04:57.858Z,0
2023-09-10T17:06:21.995Z,0
2023-09-10T17:07:46.076Z,0
2023-09-10T17:09:10.179Z,0
2023-09-10T17:10:19.334Z,0
2023-09-10T17:11:46.985Z,0
2023-09-10T17:13:11.052Z,0
2023-09-10T17:14:35.242Z,0
2023-09-10T17:16:00.313Z,0
2023-09-10T17:17:24.501Z,0
2023-09-10T17:18:50.513Z,0
2023-09-10T17:20:15.633Z,0
2023-09-10T17:21:39.773Z,0
2023-09-10T17:22:49.065Z,0
2023-09-10T17:24:13.598Z,0
2023-09-10T17:25:37.642Z,0
2023-09-10T17:27:04.821Z,0
2023-09-10T17:28:30.933Z,0
2023-09-10T17:29:54.992Z,0
2023-09-10T17:31:20.154Z,0
2023-09-10T17:32:45.304Z,0
2023-09-10T17:34:10.275Z,0
2023-09-10T17:35:30.659Z,0
2023-09-10T17:36:55.667Z,0
2023-09-10T17:38:19.933Z,0
2023-09-10T17:39:47.884Z,0
2023-09-10T17:41:13.140Z,0
2023-09-10T17:42:37.682Z,0